createdAt,value
2019-02-14T00:01:44.563Z,16.62
2019-02-14T00:04:11.239Z,15.70
2019-02-14T00:06:37.888Z,16.37
2019-02-14T00:09:04.535Z,16.57
2019-02-14T00:11:31.119Z,16.60
2019-02-14T00:13:57.754Z,16.75
2019-02-14T00:16:24.390Z,17.00
2019-02-14T00:18:51.073Z,16.75
2019-02-14T00:21:17.716Z,16.42
2019-02-14T00:23:44.305Z,15.15
2019-02-14T00:26:10.982Z,15.45
2019-02-14T00:28:37.620Z,16.30
2019-02-14T00:31:04.216Z,15.55
2019-02-14T00:33:30.898Z,13.58
2019-02-14T00:35:57.542Z,15.43
2019-02-14T00:38:24.133Z,15.08
2019-02-14T00:40:50.768Z,16.02
2019-02-14T00:43:17.415Z,15.15
2019-02-14T00:45:44.006Z,15.85
2019-02-14T00:48:10.723Z,14.40
2019-02-14T00:50:37.466Z,14.55
2019-02-14T00:53:04.102Z,16.80
2019-02-14T00:55:30.691Z,14.20
2019-02-14T00:57:57.339Z,15.05
2019-02-14T01:00:23.926Z,15.23
2019-02-14T01:02:50.572Z,13.75
2019-02-14T01:05:17.219Z,16.90
2019-02-14T01:07:43.807Z,15.35
2019-02-14T01:10:10.448Z,16.57
2019-02-14T01:12:37.035Z,15.53
2019-02-14T01:15:03.672Z,15.43
2019-02-14T01:17:30.255Z,16.12
2019-02-14T01:19:56.918Z,16.40
2019-02-14T01:22:23.508Z,15.38
2019-02-14T01:24:50.153Z,15.95
2019-02-14T01:27:16.745Z,16.32
2019-02-14T01:29:43.368Z,15.08
2019-02-14T01:32:10.009Z,16.57
2019-02-14T01:34:36.645Z,17.02
2019-02-14T01:37:03.242Z,16.90
2019-02-14T01:39:29.874Z,16.35
2019-02-14T01:41:56.515Z,16.48
2019-02-14T01:44:23.098Z,16.02
2019-02-14T01:46:49.733Z,16.77
2019-02-14T01:49:16.327Z,15.10
2019-02-14T01:51:42.966Z,15.48
2019-02-14T01:54:09.552Z,15.58
2019-02-14T01:56:36.188Z,14.83
2019-02-14T01:59:02.774Z,15.40
2019-02-14T02:01:29.412Z,15.15
2019-02-14T02:03:56.054Z,15.10
2019-02-14T02:06:22.643Z,15.53
2019-02-14T02:08:49.283Z,16.55
2019-02-14T02:11:15.908Z,16.15
2019-02-14T02:13:42.651Z,17.87
2019-02-14T02:16:09.244Z,17.10
2019-02-14T02:18:35.926Z,16.97
2019-02-14T02:21:02.512Z,16.20
2019-02-14T02:23:29.152Z,17.35
2019-02-14T02:25:55.790Z,16.75
2019-02-14T02:28:22.483Z,16.73
2019-02-14T02:30:49.129Z,19.25
2019-02-14T02:33:15.759Z,17.27
2019-02-14T02:35:42.347Z,16.97
2019-02-14T02:38:08.995Z,17.67
2019-02-14T02:40:35.593Z,16.02
2019-02-14T02:43:02.178Z,17.35
2019-02-14T02:45:28.819Z,17.00
2019-02-14T02:47:55.582Z,17.48
2019-02-14T02:50:22.324Z,18.25
2019-02-14T02:52:48.964Z,17.32
2019-02-14T02:55:15.544Z,17.87
2019-02-14T02:57:42.178Z,18.65
2019-02-14T03:00:08.809Z,16.93
2019-02-14T03:02:35.394Z,16.93
2019-02-14T03:05:02.029Z,16.45
2019-02-14T03:07:28.616Z,16.77
2019-02-14T03:09:55.203Z,15.72
2019-02-14T03:12:21.831Z,17.30
2019-02-14T03:14:48.468Z,15.23
2019-02-14T03:17:15.051Z,16.10
2019-02-14T03:19:41.690Z,16.87
2019-02-14T03:22:08.323Z,15.90
2019-02-14T03:24:34.950Z,15.98
2019-02-14T03:27:01.580Z,16.65
2019-02-14T03:29:28.211Z,15.30
2019-02-14T03:31:54.802Z,15.75
2019-02-14T03:34:21.459Z,15.38
2019-02-14T03:36:48.139Z,15.13
2019-02-14T03:39:14.776Z,14.38
2019-02-14T03:41:41.403Z,14.25
2019-02-14T03:44:07.991Z,13.65
2019-02-14T03:46:34.622Z,13.65
2019-02-14T03:49:01.441Z,13.13
2019-02-14T03:51:28.175Z,14.18
2019-02-14T03:53:54.811Z,14.20
2019-02-14T03:56:21.553Z,13.58
2019-02-14T03:58:48.143Z,13.65
2019-02-14T04:01:14.732Z,13.18
2019-02-14T04:03:41.372Z,13.20
2019-02-14T04:06:08.032Z,13.45
2019-02-14T04:08:34.686Z,12.75
2019-02-14T04:11:01.269Z,12.90
2019-02-14T04:13:27.918Z,12.10
2019-02-14T04:15:54.501Z,11.73
2019-02-14T04:18:21.133Z,13.05
2019-02-14T04:20:47.762Z,13.40
2019-02-14T04:23:14.358Z,12.28
2019-02-14T04:25:40.988Z,12.63
2019-02-14T04:28:07.628Z,12.63
2019-02-14T04:30:34.263Z,11.60
2019-02-14T04:33:00.850Z,12.00
2019-02-14T04:35:27.481Z,11.83
2019-02-14T04:37:54.072Z,12.18
2019-02-14T04:40:20.722Z,14.13
2019-02-14T04:42:47.305Z,12.35
2019-02-14T04:45:13.892Z,11.88
2019-02-14T04:47:40.531Z,11.90
2019-02-14T04:50:07.115Z,11.48
2019-02-14T04:52:33.756Z,11.88
2019-02-14T04:55:00.344Z,12.28
2019-02-14T04:57:26.930Z,12.30
2019-02-14T04:59:53.565Z,11.97
2019-02-14T05:02:20.156Z,11.95
2019-02-14T05:04:46.785Z,11.38
2019-02-14T05:07:13.377Z,11.63
2019-02-14T05:09:40.014Z,12.20
2019-02-14T05:12:06.619Z,11.60
2019-02-14T05:14:33.200Z,12.80
2019-02-14T05:16:59.832Z,12.28
2019-02-14T05:19:26.427Z,12.60
2019-02-14T05:21:53.069Z,12.80
2019-02-14T05:24:19.702Z,12.63
2019-02-14T05:26:46.342Z,13.08
2019-02-14T05:29:12.925Z,13.85
2019-02-14T05:31:39.564Z,13.18
2019-02-14T05:34:06.259Z,12.55
2019-02-14T05:36:32.902Z,12.58
2019-02-14T05:38:59.487Z,13.22
2019-02-14T05:41:26.076Z,13.32
2019-02-14T05:43:52.713Z,11.97
2019-02-14T05:46:19.300Z,13.43
2019-02-14T05:48:45.929Z,12.82
2019-02-14T05:51:12.563Z,12.20
2019-02-14T05:53:39.151Z,12.65
2019-02-14T05:56:05.784Z,10.85
2019-02-14T05:58:32.434Z,12.15
2019-02-14T06:00:59.020Z,11.53
2019-02-14T06:03:25.602Z,12.30
2019-02-14T06:05:52.251Z,11.35
2019-02-14T06:08:18.880Z,11.33
2019-02-14T06:10:45.517Z,10.85
2019-02-14T06:13:12.149Z,11.20
2019-02-14T06:15:38.781Z,11.25
2019-02-14T06:18:05.440Z,11.83
2019-02-14T06:20:32.079Z,11.45
2019-02-14T06:22:58.816Z,11.93
2019-02-14T06:25:25.403Z,12.80
2019-02-14T06:27:52.039Z,11.73
2019-02-14T06:30:18.622Z,12.00
2019-02-14T06:32:45.254Z,11.00
2019-02-14T06:35:11.843Z,12.05
2019-02-14T06:37:38.474Z,11.35
2019-02-14T06:40:05.064Z,11.95
2019-02-14T06:42:31.707Z,11.38
2019-02-14T06:44:58.341Z,11.12
2019-02-14T06:47:24.931Z,11.03
2019-02-14T06:49:51.570Z,11.50
2019-02-14T06:52:18.158Z,10.65
2019-02-14T06:54:44.907Z,12.05
2019-02-14T06:57:11.495Z,12.33
2019-02-14T06:59:38.079Z,11.50
2019-02-14T07:02:04.711Z,11.00
2019-02-14T07:04:32.531Z,11.88
2019-02-14T07:06:59.110Z,11.43
2019-02-14T07:09:25.747Z,11.63
2019-02-14T07:11:52.330Z,10.82
2019-02-14T07:14:19.038Z,11.35
2019-02-14T07:16:45.673Z,11.65
2019-02-14T07:19:12.264Z,10.55
2019-02-14T07:21:38.898Z,11.70
2019-02-14T07:24:05.490Z,11.45
2019-02-14T07:26:32.120Z,11.10
2019-02-14T07:28:58.763Z,11.30
2019-02-14T07:31:25.354Z,11.33
2019-02-14T07:33:51.988Z,10.53
2019-02-14T07:36:18.618Z,11.20
2019-02-14T07:38:45.208Z,11.65
2019-02-14T07:41:11.839Z,11.75
2019-02-14T07:43:38.422Z,11.03
2019-02-14T07:46:05.055Z,11.43
2019-02-14T07:48:31.709Z,11.18
2019-02-14T07:50:58.357Z,11.30
2019-02-14T07:53:24.997Z,11.60
2019-02-14T07:55:51.592Z,11.45
2019-02-14T07:58:18.184Z,11.48
2019-02-14T08:00:44.818Z,11.10
2019-02-14T08:03:11.450Z,11.10
2019-02-14T08:05:38.079Z,11.33
2019-02-14T08:08:04.661Z,11.15
2019-02-14T08:10:31.309Z,11.80
2019-02-14T08:12:57.894Z,12.00
2019-02-14T08:15:24.478Z,12.10
2019-02-14T08:17:51.114Z,10.45
2019-02-14T08:20:17.751Z,11.38
2019-02-14T08:22:44.335Z,11.45
2019-02-14T08:25:11.031Z,11.57
2019-02-14T08:27:37.670Z,9.85
2019-02-14T08:30:04.309Z,12.05
2019-02-14T08:32:30.896Z,11.33
2019-02-14T08:34:57.543Z,11.18
2019-02-14T08:37:24.223Z,11.38
2019-02-14T08:39:50.858Z,11.28
2019-02-14T08:42:17.498Z,10.93
2019-02-14T08:44:44.149Z,10.82
2019-02-14T08:47:10.737Z,11.18
2019-02-14T08:49:37.323Z,11.20
2019-02-14T08:52:03.962Z,10.38
2019-02-14T08:54:30.548Z,12.05
2019-02-14T08:56:57.186Z,10.93
2019-02-14T08:59:23.863Z,11.00
2019-02-14T09:01:50.509Z,10.68
2019-02-14T09:04:17.095Z,11.10
2019-02-14T09:06:43.843Z,10.93
2019-02-14T09:09:10.522Z,10.50
2019-02-14T09:11:37.108Z,11.73
2019-02-14T09:14:03.692Z,10.65
2019-02-14T09:16:30.328Z,9.60
2019-02-14T09:18:56.956Z,10.93
2019-02-14T09:21:23.544Z,10.15
2019-02-14T09:23:50.173Z,10.95
2019-02-14T09:26:16.777Z,9.98
2019-02-14T09:28:43.407Z,10.38
2019-02-14T09:31:10.054Z,9.78
2019-02-14T09:33:36.644Z,10.78
2019-02-14T09:36:03.332Z,10.68
2019-02-14T09:38:29.973Z,10.05
2019-02-14T09:40:56.609Z,8.78
2019-02-14T09:43:29.582Z,10.48
2019-02-14T09:45:51.587Z,9.40
2019-02-14T09:48:18.160Z,11.18
2019-02-14T09:50:44.903Z,10.28
2019-02-14T09:53:11.490Z,10.80
2019-02-14T09:55:38.145Z,10.72
2019-02-14T09:58:04.819Z,11.38
2019-02-14T10:00:31.777Z,10.28
2019-02-14T10:02:58.437Z,9.88
2019-02-14T10:05:25.097Z,10.55
2019-02-14T10:07:52.610Z,10.08
2019-02-14T10:10:19.385Z,11.03
2019-02-14T10:12:46.179Z,10.03
2019-02-14T10:15:12.793Z,10.45
2019-02-14T10:17:39.584Z,10.43
2019-02-14T10:20:06.243Z,11.10
2019-02-14T10:22:32.828Z,10.93
2019-02-14T10:24:59.472Z,10.53
2019-02-14T10:27:26.996Z,10.50
2019-02-14T10:29:53.632Z,10.78
2019-02-14T10:32:21.244Z,10.65
2019-02-14T10:34:48.015Z,11.35
2019-02-14T10:37:15.391Z,11.18
2019-02-14T10:39:42.798Z,10.30
2019-02-14T10:42:09.631Z,10.93
2019-02-14T10:44:36.243Z,10.80
2019-02-14T10:47:02.902Z,10.93
2019-02-14T10:49:29.538Z,10.25
2019-02-14T10:51:56.199Z,10.38
2019-02-14T10:54:22.784Z,10.40
2019-02-14T10:56:49.511Z,10.98
2019-02-14T10:59:16.162Z,9.65
2019-02-14T11:01:42.937Z,9.35
2019-02-14T11:04:09.546Z,9.73
2019-02-14T11:06:36.204Z,9.25
2019-02-14T11:09:02.798Z,8.30
2019-02-14T11:11:29.427Z,8.03
2019-02-14T11:13:56.018Z,8.45
2019-02-14T11:16:22.753Z,9.48
2019-02-14T11:18:49.333Z,8.90
2019-02-14T11:21:15.960Z,8.48
2019-02-14T11:23:42.599Z,8.35
2019-02-14T11:26:09.183Z,8.10
2019-02-14T11:28:35.819Z,7.85
2019-02-14T11:31:02.405Z,7.85
2019-02-14T11:33:29.059Z,7.05
2019-02-14T11:35:55.640Z,7.35
2019-02-14T11:38:22.231Z,6.65
2019-02-14T11:40:48.867Z,6.80
2019-02-14T11:43:15.460Z,6.45
2019-02-14T11:45:42.093Z,7.92
2019-02-14T11:48:08.676Z,7.60
2019-02-14T11:50:35.265Z,7.15
2019-02-14T11:53:02.137Z,6.92
2019-02-14T11:55:28.871Z,6.87
2019-02-14T11:57:55.515Z,7.33
2019-02-14T12:00:22.170Z,7.58
2019-02-14T12:02:54.978Z,6.65
2019-02-14T12:05:17.207Z,6.70
2019-02-14T12:07:43.794Z,7.42
2019-02-14T12:10:13.594Z,6.58
2019-02-14T12:12:39.454Z,6.53
2019-02-14T12:15:07.627Z,5.90
2019-02-14T12:17:36.684Z,5.92
2019-02-14T12:20:04.877Z,5.70
2019-02-14T12:22:31.563Z,6.53
2019-02-14T12:24:58.149Z,6.45
2019-02-14T12:27:24.792Z,6.60
2019-02-14T12:29:51.425Z,6.33
2019-02-14T12:32:18.016Z,5.97
2019-02-14T12:34:44.816Z,6.35
2019-02-14T12:37:11.403Z,5.95
2019-02-14T12:39:37.989Z,6.08
2019-02-14T12:42:04.626Z,5.70
2019-02-14T12:44:31.260Z,6.10
2019-02-14T12:46:57.851Z,6.35
2019-02-14T12:49:24.488Z,5.70
2019-02-14T12:51:51.069Z,5.42
2019-02-14T12:54:17.654Z,5.20
2019-02-14T12:56:44.279Z,5.22
2019-02-14T12:59:10.914Z,5.75
2019-02-14T13:01:37.503Z,5.95
2019-02-14T13:04:04.145Z,6.05
2019-02-14T13:06:30.785Z,5.47
2019-02-14T13:08:57.439Z,5.55
2019-02-14T13:11:24.075Z,5.90
2019-02-14T13:13:50.985Z,6.00
2019-02-14T13:16:17.773Z,5.72
2019-02-14T13:18:44.367Z,5.67
2019-02-14T13:21:11.001Z,5.50
2019-02-14T13:23:37.578Z,5.83
2019-02-14T13:26:04.215Z,5.78
2019-02-14T13:28:30.883Z,4.95
2019-02-14T13:30:57.515Z,6.12
2019-02-14T13:33:24.101Z,5.47
2019-02-14T13:35:50.746Z,5.87
2019-02-14T13:38:17.341Z,5.78
2019-02-14T13:40:44.417Z,5.70
2019-02-14T13:43:11.087Z,5.85
2019-02-14T13:45:37.737Z,6.15
2019-02-14T13:48:04.320Z,5.97
2019-02-14T13:50:30.955Z,5.87
2019-02-14T13:52:57.585Z,5.97
2019-02-14T13:55:24.212Z,6.70
2019-02-14T13:57:50.855Z,5.58
2019-02-14T14:00:17.442Z,5.80
2019-02-14T14:02:44.050Z,5.95
2019-02-14T14:05:11.350Z,5.97
2019-02-14T14:07:40.515Z,5.80
2019-02-14T14:10:06.291Z,5.90
2019-02-14T14:12:32.873Z,6.30
2019-02-14T14:14:59.513Z,6.00
2019-02-14T14:17:26.103Z,6.03
2019-02-14T14:19:52.738Z,7.00
2019-02-14T14:22:19.327Z,5.83
2019-02-14T14:24:45.919Z,7.22
2019-02-14T14:27:12.555Z,6.00
2019-02-14T14:29:39.189Z,6.03
2019-02-14T14:32:05.821Z,5.85
2019-02-14T14:34:33.858Z,5.75
2019-02-14T14:37:00.473Z,5.53
2019-02-14T14:39:27.144Z,5.37
2019-02-14T14:41:53.782Z,6.25
2019-02-14T14:44:20.372Z,5.70
2019-02-14T14:46:47.005Z,5.95
2019-02-14T14:49:13.652Z,6.65
2019-02-14T14:51:40.234Z,6.37
2019-02-14T14:54:06.820Z,7.22
2019-02-14T14:56:33.511Z,6.42
2019-02-14T14:59:00.148Z,6.80
2019-02-14T15:01:26.889Z,7.25
2019-02-14T15:03:53.479Z,6.50
2019-02-14T15:06:20.115Z,6.50
2019-02-14T15:08:46.701Z,6.47
2019-02-14T15:11:13.349Z,6.92
2019-02-14T15:13:39.930Z,6.65
2019-02-14T15:16:06.571Z,7.05
2019-02-14T15:18:33.158Z,7.35
2019-02-14T15:20:59.792Z,8.15
2019-02-14T15:23:26.383Z,8.15
2019-02-14T15:25:52.970Z,7.70
2019-02-14T15:28:19.705Z,8.05
2019-02-14T15:30:46.337Z,7.37
2019-02-14T15:33:12.973Z,7.62
2019-02-14T15:35:39.562Z,8.13
2019-02-14T15:38:09.215Z,7.72
2019-02-14T15:40:34.565Z,7.17
2019-02-14T15:43:01.155Z,6.90
2019-02-14T15:45:27.751Z,6.80
2019-02-14T15:47:54.375Z,6.72
2019-02-14T15:50:21.011Z,6.53
2019-02-14T15:52:47.597Z,6.45
2019-02-14T15:55:14.234Z,6.28
2019-02-14T15:57:42.859Z,6.75
2019-02-14T16:00:10.615Z,6.35
2019-02-14T16:02:37.560Z,6.53
2019-02-14T16:05:04.219Z,7.62
2019-02-14T16:07:30.853Z,6.20
2019-02-14T16:09:57.442Z,6.20
2019-02-14T16:12:24.028Z,5.67
2019-02-14T16:14:50.744Z,5.62
2019-02-14T16:17:17.380Z,5.45
2019-02-14T16:19:44.020Z,4.85
2019-02-14T16:22:10.932Z,4.92
2019-02-14T16:24:39.185Z,4.92
2019-02-14T16:27:05.982Z,4.08
2019-02-14T16:29:32.565Z,4.17
2019-02-14T16:31:59.191Z,4.10
2019-02-14T16:34:25.838Z,3.75
2019-02-14T16:36:52.419Z,3.98
2019-02-14T16:39:20.643Z,4.08
2019-02-14T16:41:47.353Z,4.22
2019-02-14T16:44:13.935Z,4.12
2019-02-14T16:46:40.567Z,4.12
2019-02-14T16:49:07.153Z,3.80
2019-02-14T16:51:34.794Z,4.28
2019-02-14T16:54:02.051Z,4.20
2019-02-14T16:56:29.111Z,4.15
2019-02-14T16:58:56.803Z,3.83
2019-02-14T17:01:25.938Z,4.00
2019-02-14T17:03:52.620Z,3.37
2019-02-14T17:06:19.206Z,3.75
2019-02-14T17:08:45.836Z,3.98
2019-02-14T17:11:13.235Z,4.10
2019-02-14T17:13:41.173Z,4.78
2019-02-14T17:16:07.805Z,4.67
2019-02-14T17:18:34.389Z,4.20
2019-02-14T17:21:01.021Z,3.98
2019-02-14T17:23:27.656Z,3.92
2019-02-14T17:25:54.240Z,4.80
2019-02-14T17:28:21.138Z,4.72
2019-02-14T17:30:48.423Z,4.35
2019-02-14T17:33:15.385Z,5.30
2019-02-14T17:35:42.207Z,4.92
2019-02-14T17:38:09.042Z,5.03
2019-02-14T17:40:35.908Z,6.10
2019-02-14T17:43:03.758Z,5.95
2019-02-14T17:45:30.496Z,5.50
2019-02-14T17:47:57.081Z,7.10
2019-02-14T17:50:23.667Z,9.08
2019-02-14T17:52:50.276Z,9.63
2019-02-14T17:55:16.862Z,7.97
2019-02-14T17:57:43.572Z,6.78
2019-02-14T18:00:10.154Z,7.58
2019-02-14T18:02:36.736Z,7.83
2019-02-14T18:05:03.346Z,8.40
2019-02-14T18:07:29.929Z,7.37
2019-02-14T18:09:56.537Z,7.42
2019-02-14T18:12:23.120Z,8.08
2019-02-14T18:14:49.732Z,7.80
2019-02-14T18:17:16.367Z,7.28
2019-02-14T18:19:42.955Z,8.30
2019-02-14T18:22:09.646Z,8.13
2019-02-14T18:24:36.258Z,7.75
2019-02-14T18:27:03.144Z,8.10
2019-02-14T18:29:30.020Z,10.13
2019-02-14T18:31:56.599Z,11.18
2019-02-14T18:34:23.219Z,11.90
2019-02-14T18:36:50.706Z,11.70
2019-02-14T18:39:17.288Z,11.35
2019-02-14T18:41:43.898Z,13.05
2019-02-14T18:44:10.511Z,11.57
2019-02-14T18:46:37.097Z,10.10
2019-02-14T18:49:03.751Z,10.80
2019-02-14T18:51:30.361Z,10.90
2019-02-14T18:53:57.091Z,11.10
2019-02-14T18:56:23.735Z,10.88
2019-02-14T18:58:50.319Z,10.78
2019-02-14T19:01:16.940Z,9.50
2019-02-14T19:03:43.593Z,9.95
2019-02-14T19:06:10.203Z,10.00
2019-02-14T19:08:36.786Z,10.15
2019-02-14T19:11:03.399Z,9.60
2019-02-14T19:13:30.079Z,9.40
2019-02-14T19:15:56.709Z,7.33
2019-02-14T19:18:23.297Z,9.40
2019-02-14T19:20:49.906Z,9.33
2019-02-14T19:23:23.363Z,10.13
2019-02-14T19:25:44.840Z,9.93
2019-02-14T19:28:11.445Z,9.50
2019-02-14T19:30:38.074Z,14.00
2019-02-14T19:33:04.657Z,14.78
2019-02-14T19:35:31.265Z,12.35
2019-02-14T19:37:57.850Z,10.63
2019-02-14T19:40:24.463Z,9.73
2019-02-14T19:42:51.063Z,10.45
2019-02-14T19:45:17.685Z,10.03
2019-02-14T19:47:44.265Z,10.30
2019-02-14T19:50:10.851Z,10.55
2019-02-14T19:52:37.471Z,9.25
2019-02-14T19:55:04.074Z,10.13
2019-02-14T19:57:30.658Z,10.40
2019-02-14T19:59:57.247Z,10.38
2019-02-14T20:02:23.857Z,9.20
2019-02-14T20:04:50.472Z,10.48
2019-02-14T20:07:17.082Z,10.58
2019-02-14T20:09:43.657Z,10.18
2019-02-14T20:12:10.247Z,10.50
2019-02-14T20:14:36.945Z,10.38
2019-02-14T20:17:03.558Z,11.45
2019-02-14T20:19:30.142Z,10.45
2019-02-14T20:21:56.766Z,9.68
2019-02-14T20:24:23.501Z,10.38
2019-02-14T20:26:50.136Z,12.15
2019-02-14T20:29:16.720Z,11.40
2019-02-14T20:31:43.303Z,10.38
2019-02-14T20:34:09.917Z,9.75
2019-02-14T20:36:36.499Z,10.15
2019-02-14T20:39:03.224Z,9.70
2019-02-14T20:41:29.810Z,10.03
2019-02-14T20:43:56.393Z,10.70
2019-02-14T20:46:23.011Z,9.75
2019-02-14T20:48:49.588Z,9.75
2019-02-14T20:51:16.198Z,10.38
2019-02-14T20:53:42.783Z,9.68
2019-02-14T20:56:09.393Z,9.58
2019-02-14T20:58:35.972Z,9.98
2019-02-14T21:01:02.559Z,9.73
2019-02-14T21:03:29.169Z,10.13
2019-02-14T21:05:55.788Z,8.70
2019-02-14T21:08:22.372Z,9.30
2019-02-14T21:10:48.954Z,9.25
2019-02-14T21:13:15.565Z,9.63
2019-02-14T21:15:42.191Z,9.23
2019-02-14T21:18:08.766Z,9.75
2019-02-14T21:20:35.347Z,9.95
2019-02-14T21:23:02.066Z,9.03
2019-02-14T21:25:28.855Z,9.13
2019-02-14T21:27:55.440Z,9.28
2019-02-14T21:30:22.076Z,9.25
2019-02-14T21:32:48.811Z,8.30
2019-02-14T21:35:15.418Z,8.45
2019-02-14T21:37:42.045Z,9.10
2019-02-14T21:40:08.763Z,7.85
2019-02-14T21:42:35.489Z,8.53
2019-02-14T21:45:02.156Z,8.63
2019-02-14T21:47:28.854Z,8.23
2019-02-14T21:49:55.439Z,8.83
2019-02-14T21:52:22.020Z,8.63
2019-02-14T21:54:48.629Z,8.75
2019-02-14T21:57:15.242Z,8.03
2019-02-14T21:59:41.861Z,8.50
2019-02-14T22:02:08.514Z,8.95
2019-02-14T22:04:35.117Z,8.53
2019-02-14T22:07:01.806Z,8.98
2019-02-14T22:09:28.391Z,8.33
2019-02-14T22:11:55.074Z,8.53
2019-02-14T22:14:21.792Z,8.50
2019-02-14T22:16:48.444Z,8.33
2019-02-14T22:19:15.100Z,8.53
2019-02-14T22:21:41.933Z,8.35
2019-02-14T22:24:08.513Z,8.75
2019-02-14T22:26:35.199Z,8.90
2019-02-14T22:29:01.812Z,7.90
2019-02-14T22:31:28.418Z,8.05
2019-02-14T22:33:55.022Z,8.75
2019-02-14T22:36:21.611Z,8.55
2019-02-14T22:38:48.188Z,8.70
2019-02-14T22:41:14.815Z,8.75
2019-02-14T22:43:41.401Z,7.60
2019-02-14T22:46:07.985Z,8.65
2019-02-14T22:48:34.595Z,8.95
2019-02-14T22:51:01.179Z,8.38
2019-02-14T22:53:27.792Z,8.40
2019-02-14T22:55:54.374Z,8.93
2019-02-14T22:58:20.959Z,8.98
2019-02-14T23:00:47.563Z,8.43
2019-02-14T23:03:14.146Z,8.78
2019-02-14T23:05:40.758Z,8.60
2019-02-14T23:08:07.341Z,7.67
2019-02-14T23:10:33.926Z,9.18
2019-02-14T23:13:00.546Z,8.55
2019-02-14T23:15:27.122Z,7.47
2019-02-14T23:17:53.782Z,8.13
2019-02-14T23:20:20.391Z,8.55
2019-02-14T23:22:46.969Z,8.80
2019-02-14T23:25:13.555Z,8.18
2019-02-14T23:27:40.173Z,7.65
2019-02-14T23:30:06.755Z,7.97
2019-02-14T23:32:33.335Z,7.45
2019-02-14T23:35:00.045Z,7.85
2019-02-14T23:37:26.682Z,7.45
2019-02-14T23:39:53.270Z,7.90
2019-02-14T23:42:19.854Z,8.18
2019-02-14T23:44:46.459Z,7.67
2019-02-14T23:47:13.137Z,7.50
2019-02-14T23:49:39.753Z,7.40
2019-02-14T23:52:06.332Z,7.42
2019-02-14T23:54:32.946Z,6.67
2019-02-14T23:56:59.550Z,7.37
2019-02-14T23:59:26.140Z,7.78
